Time;durP1;ratioP1;P1;durP2;ratioP2;P2;SDS_P1;SDS_P2;PMS_P1;PMS_P2;Temp;Humidity;BMP_temperature;BMP_pressure;BME280_temperature;BME280_humidity;BME280_pressure;Samples;Min_cycle;Max_cycle;Signal;HPM_P1;HPM_P2
2023/04/20 00:00:57;;;;;;;7.22;2.40;;;;;;;-144.85;100.00;61331.59;4996833;28;32520;-66
2023/04/20 00:03:26;;;;;;;5.88;2.60;;;;;;;-144.85;100.00;61331.59;4997240;28;31951;-66
2023/04/20 00:05:53;;;;;;;4.03;2.20;;;;;;;-144.85;100.00;61331.59;4997559;28;32567;-66
2023/04/20 00:08:20;;;;;;;4.15;2.45;;;;;;;-144.85;100.00;61331.59;4995303;28;32789;-66
2023/04/20 00:10:47;;;;;;;4.05;2.33;;;;;;;-144.85;100.00;61331.59;5008500;28;32127;-66
2023/04/20 00:13:15;;;;;;;3.72;2.30;;;;;;;-144.85;100.00;61331.59;4996619;28;31634;-66
2023/04/20 00:15:42;;;;;;;6.38;2.40;;;;;;;-144.85;100.00;61331.59;4994149;28;31837;-67
2023/04/20 00:18:09;;;;;;;4.38;2.30;;;;;;;-144.85;100.00;61331.59;4995093;28;32371;-67
2023/04/20 00:20:37;;;;;;;5.75;2.22;;;;;;;-144.85;100.00;61331.59;4994730;28;33205;-66
2023/04/20 00:23:04;;;;;;;4.88;2.20;;;;;;;-144.85;100.00;61331.59;4996052;28;32917;-66
2023/04/20 00:25:31;;;;;;;5.05;2.25;;;;;;;-144.85;100.00;61331.59;4995075;28;31813;-66
2023/04/20 00:27:59;;;;;;;4.93;2.30;;;;;;;-144.85;100.00;61331.59;5010238;28;32512;-66
2023/04/20 00:30:27;;;;;;;7.60;2.50;;;;;;;-144.85;100.00;61331.59;4997014;28;31077;-67
2023/04/20 00:32:54;;;;;;;3.85;2.30;;;;;;;-144.85;100.00;61331.59;4996685;28;32789;-66
2023/04/20 00:35:22;;;;;;;4.32;2.17;;;;;;;-144.85;100.00;61331.59;5012870;28;31422;-66
2023/04/20 00:37:51;;;;;;;5.43;2.20;;;;;;;-144.85;100.00;61331.59;5013457;28;31309;-66
2023/04/20 00:40:18;;;;;;;4.63;2.10;;;;;;;-144.85;100.00;61331.59;4995821;28;32289;-66
2023/04/20 00:42:45;;;;;;;5.40;2.40;;;;;;;-144.85;100.00;61331.59;4994891;28;31837;-66
2023/04/20 00:45:12;;;;;;;3.47;1.73;;;;;;;-144.85;100.00;61331.59;4995190;28;31472;-66
2023/04/20 00:47:40;;;;;;;3.00;2.08;;;;;;;-144.85;100.00;61331.59;4994712;28;32554;-66
2023/04/20 00:50:08;;;;;;;5.55;1.90;;;;;;;-144.85;100.00;61331.59;5012924;28;30872;-66
2023/04/20 00:52:39;;;;;;;4.25;2.08;;;;;;;-144.85;100.00;61331.59;4995648;28;31606;-66
2023/04/20 00:55:07;;;;;;;6.03;2.03;;;;;;;-144.85;100.00;61331.59;4993649;28;31529;-66
2023/04/20 00:57:35;;;;;;;5.38;2.22;;;;;;;-144.85;100.00;61331.59;4997204;28;31232;-66
2023/04/20 01:00:05;;;;;;;5.68;2.47;;;;;;;-144.85;100.00;61331.59;5000137;28;30863;-66
2023/04/20 01:02:32;;;;;;;5.13;2.10;;;;;;;-144.85;100.00;61331.59;5021477;28;31496;-66
2023/04/20 01:05:00;;;;;;;3.50;1.98;;;;;;;-144.85;100.00;61331.59;4996548;28;31118;-66
2023/04/20 01:07:29;;;;;;;4.70;1.90;;;;;;;-144.85;100.00;61331.59;5012991;28;31260;-66
2023/04/20 01:09:56;;;;;;;6.35;2.05;;;;;;;-144.85;100.00;61331.59;5016077;28;30941;-66
2023/04/20 01:12:23;;;;;;;3.85;1.98;;;;;;;-144.85;100.00;61331.59;5005410;28;30482;-66
2023/04/20 01:14:50;;;;;;;5.00;2.20;;;;;;;-144.85;100.00;61331.59;4993340;28;31649;-66
2023/04/20 01:17:19;;;;;;;5.38;2.53;;;;;;;-144.85;100.00;61331.59;4997236;28;32316;-66
2023/04/20 01:19:46;;;;;;;8.43;2.25;;;;;;;-144.85;100.00;61331.59;4996803;28;32071;-66
2023/04/20 01:22:18;;;;;;;4.40;2.13;;;;;;;-144.85;100.00;61331.59;4997942;28;30614;-66
2023/04/20 01:24:47;;;;;;;4.57;2.40;;;;;;;-144.85;100.00;61331.59;4994364;28;31401;-67
2023/04/20 01:27:15;;;;;;;4.97;2.28;;;;;;;-144.85;100.00;61331.59;4996897;28;31620;-66
2023/04/20 01:29:44;;;;;;;4.10;2.58;;;;;;;-144.85;100.00;61331.59;4997183;28;32306;-66
2023/04/20 01:32:12;;;;;;;4.50;2.40;;;;;;;-144.85;100.00;61331.59;4995975;28;30856;-66
2023/04/20 01:34:39;;;;;;;5.55;2.10;;;;;;;-144.85;100.00;61331.59;4994288;28;31608;-67
2023/04/20 01:37:08;;;;;;;4.57;2.20;;;;;;;-144.85;100.00;61331.59;5014827;28;32336;-66
2023/04/20 01:39:37;;;;;;;4.35;2.38;;;;;;;-144.85;100.00;61331.59;5004318;28;32766;-66
2023/04/20 01:42:05;;;;;;;5.57;2.17;;;;;;;-144.85;100.00;61331.59;4997907;28;31433;-66
2023/04/20 01:44:32;;;;;;;3.13;2.08;;;;;;;-144.85;100.00;61331.59;5012307;28;30903;-66
2023/04/20 01:46:59;;;;;;;5.55;2.28;;;;;;;-144.85;100.00;61331.59;4994490;28;32513;-66
2023/04/20 01:49:27;;;;;;;3.17;2.20;;;;;;;-144.85;100.00;61331.59;4996578;28;32797;-66
2023/04/20 01:51:54;;;;;;;3.63;2.05;;;;;;;-144.85;100.00;61331.59;4993323;28;32369;-66
2023/04/20 01:54:22;;;;;;;4.57;2.08;;;;;;;-144.85;100.00;61331.59;4996815;28;31943;-66
2023/04/20 01:56:49;;;;;;;7.13;2.47;;;;;;;-144.85;100.00;61331.59;4993870;28;33453;-66
2023/04/20 01:59:16;;;;;;;4.18;2.30;;;;;;;-144.85;100.00;61331.59;4996171;28;31698;-66
2023/04/20 02:01:44;;;;;;;3.90;2.03;;;;;;;-144.85;100.00;61331.59;4994972;28;30680;-66
2023/04/20 02:04:11;;;;;;;5.65;1.90;;;;;;;-144.85;100.00;61331.59;4996419;28;32298;-66
2023/04/20 02:06:39;;;;;;;5.43;2.30;;;;;;;-144.85;100.00;61331.59;4996296;28;32352;-66
2023/04/20 02:09:08;;;;;;;3.90;2.15;;;;;;;-144.85;100.00;61331.59;5002383;28;31149;-66
2023/04/20 02:11:36;;;;;;;4.32;2.53;;;;;;;-144.85;100.00;61331.59;4995004;28;30588;-71
2023/04/20 02:14:05;;;;;;;4.80;2.47;;;;;;;-144.85;100.00;61331.59;4995827;28;30743;-66
2023/04/20 02:16:34;;;;;;;5.75;2.60;;;;;;;-144.85;100.00;61331.59;4997753;28;32683;-66
2023/04/20 02:19:01;;;;;;;5.13;2.40;;;;;;;-144.85;100.00;61331.59;4995886;28;32006;-66
2023/04/20 02:21:29;;;;;;;6.25;2.30;;;;;;;-144.85;100.00;61331.59;5011445;28;31782;-66
2023/04/20 02:23:56;;;;;;;5.47;2.33;;;;;;;-144.85;100.00;61331.59;5011797;28;31442;-66
2023/04/20 02:26:26;;;;;;;4.72;2.17;;;;;;;-144.85;100.00;61331.59;4993706;28;33439;-66
2023/04/20 02:28:53;;;;;;;3.25;2.40;;;;;;;-144.85;100.00;61331.59;4979525;28;31992;-67
2023/04/20 02:31:20;;;;;;;5.10;2.50;;;;;;;-144.85;100.00;61331.59;4993436;28;32827;-66
2023/04/20 02:33:48;;;;;;;4.70;2.15;;;;;;;-144.85;100.00;61331.59;5013403;28;30060;-66
2023/04/20 02:36:16;;;;;;;3.70;2.70;;;;;;;-144.85;100.00;61331.59;4996945;28;32858;-66
2023/04/20 02:38:45;;;;;;;10.27;2.70;;;;;;;-144.85;100.00;61331.59;4998811;28;31194;-66
2023/04/20 02:41:12;;;;;;;4.60;2.53;;;;;;;-144.85;100.00;61331.59;4997818;28;31803;-66
2023/04/20 02:43:39;;;;;;;7.13;2.75;;;;;;;-144.85;100.00;61331.59;5014889;28;31722;-66
2023/04/20 02:46:07;;;;;;;6.63;2.63;;;;;;;-144.85;100.00;61331.59;5014732;28;31182;-66
2023/04/20 02:48:34;;;;;;;4.88;2.72;;;;;;;-144.85;100.00;61331.59;4999466;28;33028;-66
2023/04/20 02:51:01;;;;;;;8.88;2.95;;;;;;;-144.85;100.00;61331.59;5014195;28;31665;-66
2023/04/20 02:53:34;;;;;;;5.55;2.83;;;;;;;-144.85;100.00;61331.59;4999036;28;31707;-66
2023/04/20 02:56:13;;;;;;;4.80;2.83;;;;;;;-144.85;100.00;61331.59;5011025;28;31276;-66
2023/04/20 02:58:50;;;;;;;;;;;;;;;-144.85;100.00;61331.59;5014744;28;35338;-66
2023/04/20 03:01:21;;;;;;;4.03;2.55;;;;;;;-144.85;100.00;61331.59;5014098;28;31000;-67
2023/04/20 03:03:57;;;;;;;;;;;;;;;-144.85;100.00;61331.59;5002840;28;30413;-66
2023/04/20 03:06:25;;;;;;;4.68;2.63;;;;;;;-144.85;100.00;61331.59;5009533;28;31315;-66
2023/04/20 03:08:55;;;;;;;4.88;2.42;;;;;;;-144.85;100.00;61331.59;4995160;28;32001;-66
2023/04/20 03:11:52;;;;;;;7.00;2.78;;;;;;;-144.85;100.00;61331.59;5001086;28;31001;-66
2023/04/20 03:14:40;;;;;;;4.63;2.80;;;;;;;-144.85;100.00;61331.59;5018897;28;32054;-68
2023/04/20 03:17:08;;;;;;;4.13;2.50;;;;;;;-144.85;100.00;61331.59;4997930;28;32351;-67
2023/04/20 03:19:36;;;;;;;5.57;2.90;;;;;;;-144.85;100.00;61331.59;4998048;28;31224;-66
2023/04/20 03:22:04;;;;;;;6.40;2.90;;;;;;;-144.85;100.00;61331.59;5013753;28;31651;-66
2023/04/20 03:24:33;;;;;;;4.47;2.80;;;;;;;-144.85;100.00;61331.59;5014249;28;29918;-66
2023/04/20 03:27:06;;;;;;;5.75;2.97;;;;;;;-144.85;100.00;61331.59;5014293;28;32235;-66
2023/04/20 03:29:41;;;;;;;5.55;2.80;;;;;;;-144.85;100.00;61331.59;5014388;28;35425;-66
2023/04/20 03:32:09;;;;;;;4.57;2.72;;;;;;;-144.85;100.00;61331.59;4995586;28;32031;-66
2023/04/20 03:34:36;;;;;;;6.18;2.70;;;;;;;-144.85;100.00;61331.59;4997690;28;30011;-66
2023/04/20 03:37:03;;;;;;;5.07;3.28;;;;;;;-144.85;100.00;61331.59;4996370;28;33410;-66
2023/04/20 03:39:30;;;;;;;4.75;2.72;;;;;;;-144.85;100.00;61331.59;4996144;28;33348;-66
2023/04/20 03:41:58;;;;;;;4.95;2.90;;;;;;;-144.85;100.00;61331.59;4996549;28;31772;-66
2023/04/20 03:44:25;;;;;;;6.47;3.08;;;;;;;-144.85;100.00;61331.59;5013712;28;30351;-66
2023/04/20 03:46:52;;;;;;;5.18;3.00;;;;;;;-144.85;100.00;61331.59;5014996;28;31428;-66
2023/04/20 03:49:23;;;;;;;8.15;3.10;;;;;;;-144.85;100.00;61331.59;5014056;28;30899;-66
2023/04/20 03:51:50;;;;;;;4.57;2.88;;;;;;;-144.85;100.00;61331.59;4994623;28;33065;-66
2023/04/20 03:54:18;;;;;;;4.65;2.75;;;;;;;-144.85;100.00;61331.59;5014261;28;30784;-66
2023/04/20 03:56:48;;;;;;;8.70;3.30;;;;;;;-144.85;100.00;61331.59;5013271;28;31307;-66
2023/04/20 03:59:16;;;;;;;4.72;3.20;;;;;;;-144.85;100.00;61331.59;4997728;28;30952;-66
2023/04/20 04:01:47;;;;;;;5.63;3.00;;;;;;;-144.85;100.00;61331.59;5012813;28;30832;-67
2023/04/20 04:04:15;;;;;;;6.30;3.25;;;;;;;-144.85;100.00;61331.59;4999619;28;30534;-66
2023/04/20 04:06:43;;;;;;;7.47;3.50;;;;;;;-144.85;100.00;61331.59;5013595;28;31515;-66
2023/04/20 04:09:10;;;;;;;5.82;3.22;;;;;;;-144.85;100.00;61331.59;5013739;28;31272;-66
2023/04/20 04:11:38;;;;;;;8.15;3.55;;;;;;;-144.85;100.00;61331.59;4997933;28;32490;-66
2023/04/20 04:14:05;;;;;;;6.45;3.50;;;;;;;-144.85;100.00;61331.59;5001930;28;30289;-66
2023/04/20 04:16:36;;;;;;;4.72;3.25;;;;;;;-144.85;100.00;61331.59;4997892;28;31317;-66
2023/04/20 04:19:03;;;;;;;8.23;3.60;;;;;;;-144.85;100.00;61331.59;4986613;28;32039;-68
2023/04/20 04:21:30;;;;;;;5.82;3.50;;;;;;;-144.85;100.00;61331.59;5012813;28;30668;-66
2023/04/20 04:24:03;;;;;;;5.47;3.35;;;;;;;-144.85;100.00;61331.59;5023719;28;31279;-66
2023/04/20 04:26:36;;;;;;;9.25;3.33;;;;;;;-144.85;100.00;61331.59;4997380;28;31753;-66
2023/04/20 04:29:03;;;;;;;5.15;3.05;;;;;;;-144.85;100.00;61331.59;5013676;28;31121;-66
2023/04/20 04:31:32;;;;;;;5.13;2.80;;;;;;;-144.85;100.00;61331.59;5012546;28;31118;-66
2023/04/20 04:34:09;;;;;;;8.77;3.47;;;;;;;-144.85;100.00;61331.59;4992862;28;30777;-67
2023/04/20 04:36:43;;;;;;;6.28;3.10;;;;;;;-144.85;100.00;61331.59;4998055;28;31287;-66
2023/04/20 04:39:13;;;;;;;5.47;3.08;;;;;;;-144.85;100.00;61331.59;5012594;28;31144;-67
2023/04/20 04:41:47;;;;;;;4.43;2.72;;;;;;;-144.85;100.00;61331.59;5011961;28;30644;-66
2023/04/20 04:44:27;;;;;;;4.93;2.72;;;;;;;-144.85;100.00;61331.59;5012660;28;34331;-66
2023/04/20 04:46:55;;;;;;;5.20;3.05;;;;;;;-144.85;100.00;61331.59;4997489;28;31388;-66
2023/04/20 04:49:25;;;;;;;9.77;2.95;;;;;;;-144.85;100.00;61331.59;5013911;28;32253;-66
2023/04/20 04:51:52;;;;;;;9.85;3.17;;;;;;;-144.85;100.00;61331.59;5012545;28;30919;-70
2023/04/20 04:54:21;;;;;;;5.93;3.00;;;;;;;-144.85;100.00;61331.59;4997699;28;20082;-66
2023/04/20 04:56:48;;;;;;;5.38;2.45;;;;;;;-144.85;100.00;61331.59;4995731;28;32479;-66
2023/04/20 04:59:15;;;;;;;5.35;2.47;;;;;;;-144.85;100.00;61331.59;4995002;28;31912;-66
2023/04/20 05:01:43;;;;;;;4.60;2.42;;;;;;;-144.85;100.00;61331.59;4997105;28;31990;-67
2023/04/20 05:04:10;;;;;;;7.80;2.80;;;;;;;-144.85;100.00;61331.59;4998311;28;30328;-66
2023/04/20 05:06:37;;;;;;;7.03;2.60;;;;;;;-144.85;100.00;61331.59;4981663;28;32444;-66
2023/04/20 05:09:05;;;;;;;3.65;2.22;;;;;;;-144.85;100.00;61331.59;4996022;28;32380;-66
2023/04/20 05:11:32;;;;;;;4.47;2.50;;;;;;;-144.85;100.00;61331.59;4996035;28;31898;-67
2023/04/20 05:14:01;;;;;;;11.48;2.72;;;;;;;-144.85;100.00;61331.59;4997308;28;31458;-66
2023/04/20 05:16:28;;;;;;;8.75;2.65;;;;;;;-144.85;100.00;61331.59;4997190;28;33430;-66
2023/04/20 05:18:56;;;;;;;4.65;2.40;;;;;;;-144.85;100.00;61331.59;5000067;28;32245;-66
2023/04/20 05:21:24;;;;;;;5.80;2.38;;;;;;;-144.85;100.00;61331.59;5000439;28;31832;-67
2023/04/20 05:23:51;;;;;;;6.07;2.92;;;;;;;-144.85;100.00;61331.59;5000581;28;31895;-66
2023/04/20 05:26:19;;;;;;;5.82;2.97;;;;;;;-144.85;100.00;61331.59;5002755;28;31060;-66
2023/04/20 05:28:46;;;;;;;8.18;3.72;;;;;;;-144.85;100.00;61331.59;4999927;28;33197;-67
2023/04/20 05:31:13;;;;;;;6.13;2.90;;;;;;;-144.85;100.00;61331.59;5000061;28;31868;-66
2023/04/20 05:33:40;;;;;;;7.95;3.28;;;;;;;-144.85;100.00;61331.59;5007360;28;32270;-66
2023/04/20 05:36:09;;;;;;;5.05;3.30;;;;;;;-144.85;100.00;61331.59;5000952;28;32466;-67
2023/04/20 05:38:36;;;;;;;8.60;3.35;;;;;;;-144.85;100.00;61331.59;5003998;28;32355;-66
2023/04/20 05:41:04;;;;;;;6.45;3.13;;;;;;;-144.85;100.00;61331.59;5002673;28;32954;-67
2023/04/20 05:43:32;;;;;;;5.70;2.80;;;;;;;-144.85;100.00;61331.59;4996874;28;30153;-66
2023/04/20 05:45:59;;;;;;;6.30;3.85;;;;;;;-144.85;100.00;61331.59;5003282;28;32270;-66
2023/04/20 05:48:27;;;;;;;6.35;3.50;;;;;;;-144.85;100.00;61331.59;4994940;28;33179;-67
2023/04/20 05:50:56;;;;;;;8.73;3.40;;;;;;;-144.85;100.00;61331.59;4998208;28;31991;-66
2023/04/20 05:53:24;;;;;;;4.93;3.53;;;;;;;-144.85;100.00;61331.59;5002061;28;32153;-66
2023/04/20 05:55:52;;;;;;;9.25;3.60;;;;;;;-144.85;100.00;61331.59;5001713;28;32574;-66
2023/04/20 05:58:19;;;;;;;8.95;3.67;;;;;;;-144.85;100.00;61331.59;5008143;28;32302;-66
2023/04/20 06:00:46;;;;;;;5.95;3.65;;;;;;;-144.85;100.00;61331.59;5004680;28;32113;-66
2023/04/20 06:03:14;;;;;;;7.38;3.50;;;;;;;-144.85;100.00;61331.59;5001378;28;30370;-67
2023/04/20 06:05:41;;;;;;;5.40;3.60;;;;;;;-144.85;100.00;61331.59;4994082;28;32457;-66
2023/04/20 06:08:08;;;;;;;6.68;3.42;;;;;;;-144.85;100.00;61331.59;4993975;28;33268;-67
2023/04/20 06:10:36;;;;;;;7.15;3.28;;;;;;;-144.85;100.00;61331.59;5014454;28;30745;-66
2023/04/20 06:13:03;;;;;;;9.95;3.30;;;;;;;-144.85;100.00;61331.59;4999668;28;31436;-66
2023/04/20 06:15:30;;;;;;;7.18;3.10;;;;;;;-144.85;100.00;61331.59;4997342;28;32434;-67
2023/04/20 06:17:58;;;;;;;11.63;3.58;;;;;;;-144.85;100.00;61331.59;4998115;28;32977;-66
2023/04/20 06:20:25;;;;;;;6.30;3.17;;;;;;;-144.85;100.00;61331.59;5015055;28;30743;-66
2023/04/20 06:22:52;;;;;;;4.82;2.88;;;;;;;-144.85;100.00;61331.59;4997049;28;31561;-66
2023/04/20 06:25:21;;;;;;;6.80;3.22;;;;;;;-144.85;100.00;61331.59;4983428;28;32135;-65
2023/04/20 06:27:48;;;;;;;6.65;3.35;;;;;;;-144.85;100.00;61331.59;5011853;28;31980;-65
2023/04/20 06:30:18;;;;;;;6.22;3.28;;;;;;;-144.85;100.00;61331.59;4997674;28;31899;-66
2023/04/20 06:32:46;;;;;;;8.50;3.63;;;;;;;-144.85;100.00;61331.59;4996810;28;31658;-66
2023/04/20 06:35:13;;;;;;;8.45;3.10;;;;;;;-144.85;100.00;61331.59;5014678;28;31380;-66
2023/04/20 06:37:40;;;;;;;6.25;3.13;;;;;;;-144.85;100.00;61331.59;4997760;28;32090;-66
2023/04/20 06:40:08;;;;;;;6.32;3.03;;;;;;;-144.85;100.00;61331.59;4998500;28;30689;-65
2023/04/20 06:42:36;;;;;;;5.22;3.00;;;;;;;-144.85;100.00;61331.59;4996363;28;32471;-66
2023/04/20 06:45:07;;;;;;;5.53;2.92;;;;;;;-144.85;100.00;61331.59;4996254;28;32770;-69
2023/04/20 06:47:34;;;;;;;5.60;3.15;;;;;;;-144.85;100.00;61331.59;4998365;28;33339;-69
2023/04/20 06:50:08;;;;;;;8.00;3.15;;;;;;;-144.85;100.00;61331.59;4998270;28;31866;-69
2023/04/20 06:52:37;;;;;;;4.63;3.00;;;;;;;-144.85;100.00;61331.59;4998344;28;32644;-69
2023/04/20 06:55:04;;;;;;;7.10;3.47;;;;;;;-144.85;100.00;61331.59;5014516;28;31307;-69
2023/04/20 06:57:32;;;;;;;6.78;3.10;;;;;;;-144.85;100.00;61331.59;4996119;28;32092;-69
2023/04/20 06:59:59;;;;;;;7.05;3.10;;;;;;;-144.85;100.00;61331.59;4996743;28;31835;-69
2023/04/20 07:02:26;;;;;;;7.13;3.20;;;;;;;-144.85;100.00;61331.59;4996378;28;31507;-69
2023/04/20 07:05:00;;;;;;;6.65;3.00;;;;;;;-144.85;100.00;61331.59;4983924;28;32560;-69
2023/04/20 07:07:27;;;;;;;6.85;3.17;;;;;;;-144.85;100.00;61331.59;4996165;28;32923;-69
2023/04/20 07:09:54;;;;;;;6.07;2.80;;;;;;;-144.85;100.00;61331.59;4997073;28;31466;-69
2023/04/20 07:12:22;;;;;;;5.35;2.97;;;;;;;-144.85;100.00;61331.59;4995944;28;32986;-69
2023/04/20 07:14:50;;;;;;;5.50;3.10;;;;;;;-144.85;100.00;61331.59;4995833;28;33482;-69
2023/04/20 07:17:17;;;;;;;5.03;2.92;;;;;;;-144.85;100.00;61331.59;4998451;28;32157;-69
2023/04/20 07:19:44;;;;;;;4.45;2.97;;;;;;;-144.85;100.00;61331.59;4995588;28;31777;-69
2023/04/20 07:22:11;;;;;;;5.88;2.90;;;;;;;-144.85;100.00;61331.59;4995226;28;31569;-68
2023/04/20 07:24:39;;;;;;;4.82;3.17;;;;;;;-144.85;100.00;61331.59;4995864;28;32439;-69
2023/04/20 07:27:07;;;;;;;7.50;3.30;;;;;;;-144.85;100.00;61331.59;5013352;28;30967;-69
2023/04/20 07:29:34;;;;;;;6.05;2.88;;;;;;;-144.85;100.00;61331.59;4998114;28;32440;-69
2023/04/20 07:32:02;;;;;;;6.13;3.13;;;;;;;-144.85;100.00;61331.59;4997885;28;31645;-69
2023/04/20 07:34:29;;;;;;;6.07;2.75;;;;;;;-144.85;100.00;61331.59;4998562;28;32673;-69
2023/04/20 07:36:56;;;;;;;5.35;2.72;;;;;;;-144.85;100.00;61331.59;5010623;28;32180;-69
2023/04/20 07:39:26;;;;;;;5.10;3.10;;;;;;;-144.85;100.00;61331.59;4995658;28;31852;-69
2023/04/20 07:41:53;;;;;;;5.20;3.10;;;;;;;-144.85;100.00;61331.59;4997390;28;30355;-69
2023/04/20 07:44:21;;;;;;;5.55;3.10;;;;;;;-144.85;100.00;61331.59;5013494;28;32310;-70
2023/04/20 07:46:48;;;;;;;5.75;3.03;;;;;;;-144.85;100.00;61331.59;4995372;28;33124;-70
2023/04/20 07:49:15;;;;;;;7.65;3.20;;;;;;;-144.85;100.00;61331.59;4995387;28;31616;-70
2023/04/20 07:51:44;;;;;;;6.90;2.83;;;;;;;-144.85;100.00;61331.59;5013336;28;30106;-69
2023/04/20 07:54:11;;;;;;;3.97;2.75;;;;;;;-144.85;100.00;61331.59;5014538;27;31685;-69
2023/04/20 07:56:38;;;;;;;5.80;2.67;;;;;;;-144.85;100.00;61331.59;5017214;28;31086;-70
2023/04/20 07:59:05;;;;;;;3.85;2.55;;;;;;;-144.85;100.00;61331.59;4999682;28;31832;-69
2023/04/20 08:01:33;;;;;;;6.63;2.83;;;;;;;-144.85;100.00;61331.59;4997173;28;31488;-69
2023/04/20 08:04:00;;;;;;;4.82;2.63;;;;;;;-144.85;100.00;61331.59;4997328;28;31405;-69
2023/04/20 08:06:28;;;;;;;5.10;2.60;;;;;;;-144.85;100.00;61331.59;5013582;28;32188;-69
2023/04/20 08:08:55;;;;;;;5.95;2.70;;;;;;;-144.85;100.00;61331.59;4996781;28;31475;-70
2023/04/20 08:11:23;;;;;;;7.00;2.80;;;;;;;-144.85;100.00;61331.59;4997041;28;31351;-69
2023/04/20 08:13:51;;;;;;;6.18;2.80;;;;;;;-144.85;100.00;61331.59;4996728;28;31292;-70
2023/04/20 08:16:18;;;;;;;4.13;2.53;;;;;;;-144.85;100.00;61331.59;4993972;28;32007;-70
2023/04/20 08:18:45;;;;;;;4.50;2.60;;;;;;;-144.85;100.00;61331.59;4998316;28;32295;-70
2023/04/20 08:21:13;;;;;;;4.40;2.70;;;;;;;-144.85;100.00;61331.59;4994451;28;32612;-70
2023/04/20 08:23:40;;;;;;;5.70;2.70;;;;;;;-144.85;100.00;61331.59;4997167;28;32748;-70
2023/04/20 08:26:14;;;;;;;4.32;2.60;;;;;;;-144.85;100.00;61331.59;5001428;28;32071;-69
2023/04/20 08:28:43;;;;;;;3.65;2.47;;;;;;;-144.85;100.00;61331.59;4994247;28;31879;-70
2023/04/20 08:31:12;;;;;;;8.07;2.67;;;;;;;-144.85;100.00;61331.59;4992967;28;31527;-70
2023/04/20 08:33:40;;;;;;;4.28;2.90;;;;;;;-144.85;100.00;61331.59;4996749;28;32338;-69
2023/04/20 08:36:10;;;;;;;4.40;2.65;;;;;;;-144.85;100.00;61331.59;5010374;28;32007;-69
2023/04/20 08:38:37;;;;;;;4.72;2.95;;;;;;;-144.85;100.00;61331.59;4995302;28;33108;-69
2023/04/20 08:41:06;;;;;;;5.13;2.70;;;;;;;-144.85;100.00;61331.59;4995421;28;31197;-69
2023/04/20 08:43:33;;;;;;;4.07;2.60;;;;;;;-144.85;100.00;61331.59;5013582;28;30758;-69
2023/04/20 08:46:01;;;;;;;6.43;2.70;;;;;;;-144.85;100.00;61331.59;4995876;28;32247;-70
2023/04/20 08:48:40;;;;;;;6.70;2.95;;;;;;;-144.85;100.00;61331.59;4981327;28;31808;-69
2023/04/20 08:51:08;;;;;;;4.80;2.70;;;;;;;-144.85;100.00;61331.59;4996807;28;32308;-69
2023/04/20 08:53:35;;;;;;;4.72;2.85;;;;;;;-144.85;100.00;61331.59;4997192;28;32154;-70
2023/04/20 08:56:03;;;;;;;4.38;2.70;;;;;;;-144.85;100.00;61331.59;4995072;28;32660;-69
2023/04/20 08:58:31;;;;;;;4.82;2.63;;;;;;;-144.85;100.00;61331.59;5010469;28;31768;-69
2023/04/20 09:01:00;;;;;;;5.93;2.72;;;;;;;-144.85;100.00;61331.59;5009933;28;31282;-70
2023/04/20 09:03:35;;;;;;;5.80;2.70;;;;;;;-144.85;100.00;61331.59;4988655;28;31332;-69
2023/04/20 09:06:15;;;;;;;5.78;2.80;;;;;;;-144.85;100.00;61331.59;5006756;28;31098;-69
2023/04/20 09:08:44;;;;;;;7.53;2.80;;;;;;;-144.85;100.00;61331.59;5005374;28;32823;-70
2023/04/20 09:11:22;;;;;;;7.72;3.15;;;;;;;-144.85;100.00;61331.59;5031981;28;30368;-70
2023/04/20 09:14:09;;;;;;;7.05;3.00;;;;;;;-144.85;100.00;61331.59;5006869;28;31216;-69
2023/04/20 09:16:38;;;;;;;6.18;3.05;;;;;;;-144.85;100.00;61331.59;4997504;28;31568;-69
2023/04/20 09:19:06;;;;;;;6.90;3.05;;;;;;;-144.85;100.00;61331.59;4995687;28;31705;-69
2023/04/20 09:21:35;;;;;;;7.20;3.08;;;;;;;-144.85;100.00;61331.59;5012501;28;31724;-69
2023/04/20 09:26:55;;;;;;;5.10;2.80;;;;;;;-144.85;100.00;61331.59;4372864;26;20061;-67
2023/04/20 09:29:24;;;;;;;4.75;2.95;;;;;;;-144.85;100.00;61331.59;5057103;28;31833;-67
2023/04/20 09:31:51;;;;;;;7.25;2.97;;;;;;;-144.85;100.00;61331.59;5043774;28;32223;-67
2023/04/20 09:34:19;;;;;;;5.30;2.63;;;;;;;-144.85;100.00;61331.59;5077609;28;31670;-67
2023/04/20 09:36:50;;;;;;;3.50;2.45;;;;;;;-144.85;100.00;61331.59;5073381;28;32095;-67
2023/04/20 09:39:19;;;;;;;5.32;2.88;;;;;;;-144.85;100.00;61331.59;5050981;28;31581;-67
2023/04/20 09:41:48;;;;;;;5.50;3.08;;;;;;;-144.85;100.00;61331.59;5060775;28;31384;-67
2023/04/20 09:44:17;;;;;;;6.22;2.92;;;;;;;-144.85;100.00;61331.59;5054929;28;31550;-66
2023/04/20 09:46:45;;;;;;;6.68;3.30;;;;;;;-144.85;100.00;61331.59;5068367;28;33193;-67
2023/04/20 09:49:15;;;;;;;4.80;3.10;;;;;;;-144.85;100.00;61331.59;5072417;28;30503;-66
2023/04/20 09:51:45;;;;;;;5.90;2.97;;;;;;;-144.85;100.00;61331.59;5069225;28;31402;-67
2023/04/20 09:54:14;;;;;;;6.25;3.08;;;;;;;-144.85;100.00;61331.59;5066123;28;31648;-66
2023/04/20 09:56:42;;;;;;;6.05;3.28;;;;;;;-144.85;100.00;61331.59;5064286;28;32584;-66
2023/04/20 09:59:10;;;;;;;5.72;3.10;;;;;;;-144.85;100.00;61331.59;5063231;28;32878;-66
2023/04/20 10:01:37;;;;;;;6.47;3.13;;;;;;;-144.85;100.00;61331.59;5074285;28;31218;-66
2023/04/20 10:04:13;;;;;;;5.15;2.72;;;;;;;-144.85;100.00;61331.59;5084703;28;31197;-66
2023/04/20 10:06:55;;;;;;;4.25;2.80;;;;;;;-144.85;100.00;61331.59;5068423;28;32043;-67
2023/04/20 10:09:25;;;;;;;5.18;3.15;;;;;;;-144.85;100.00;61331.59;5084718;28;30499;-66
2023/04/20 10:11:52;;;;;;;5.60;3.20;;;;;;;-144.85;100.00;61331.59;5082251;28;32596;-67
2023/04/20 10:14:24;;;;;;;6.57;3.53;;;;;;;-144.85;100.00;61331.59;5084555;28;31638;-67
2023/04/20 10:17:03;;;;;;;8.02;3.45;;;;;;;-144.85;100.00;61331.59;5077471;28;31014;-67
2023/04/20 10:19:43;;;;;;;4.97;3.55;;;;;;;-144.85;100.00;61331.59;5077120;28;31939;-67
2023/04/20 10:22:24;;;;;;;5.88;3.50;;;;;;;-144.85;100.00;61331.59;5081763;28;32379;-66
2023/04/20 10:24:51;;;;;;;5.10;3.40;;;;;;;-144.85;100.00;61331.59;5082604;28;32472;-66
2023/04/20 10:27:21;;;;;;;5.20;3.38;;;;;;;-144.85;100.00;61331.59;5082670;28;32112;-66
2023/04/20 10:29:48;;;;;;;5.68;3.58;;;;;;;-144.85;100.00;61331.59;5081430;28;31605;-66
2023/04/20 10:32:26;;;;;;;5.43;3.22;;;;;;;-144.85;100.00;61331.59;5081783;28;31398;-67
2023/04/20 10:35:06;;;;;;;5.45;3.35;;;;;;;-144.85;100.00;61331.59;5083686;28;32569;-66
2023/04/20 10:37:34;;;;;;;5.63;3.05;;;;;;;-144.85;100.00;61331.59;5085192;28;32061;-66
2023/04/20 10:40:03;;;;;;;6.38;3.53;;;;;;;-144.85;100.00;61331.59;5083244;28;31920;-65
2023/04/20 10:42:42;;;;;;;6.82;3.58;;;;;;;-144.85;100.00;61331.59;5083698;28;30420;-66
2023/04/20 10:45:10;;;;;;;5.63;3.63;;;;;;;-144.85;100.00;61331.59;5084771;28;32386;-66
2023/04/20 10:47:39;;;;;;;4.70;3.58;;;;;;;-144.85;100.00;61331.59;5083575;28;32313;-66
2023/04/20 10:50:08;;;;;;;4.88;3.47;;;;;;;-144.85;100.00;61331.59;5082049;28;32168;-65
2023/04/20 10:52:38;;;;;;;5.13;3.05;;;;;;;-144.85;100.00;61331.59;5075617;28;31614;-65
2023/04/20 10:55:17;;;;;;;5.28;3.25;;;;;;;-144.85;100.00;61331.59;5075932;28;33295;-65
2023/04/20 10:57:44;;;;;;;6.20;3.45;;;;;;;-144.85;100.00;61331.59;5081866;28;31042;-66
2023/04/20 11:00:15;;;;;;;8.20;3.40;;;;;;;-144.85;100.00;61331.59;5081823;28;30478;-66
2023/04/20 11:02:47;;;;;;;6.68;3.50;;;;;;;-144.85;100.00;61331.59;5075806;28;31761;-65
2023/04/20 11:05:17;;;;;;;5.95;3.22;;;;;;;-144.85;100.00;61331.59;5071395;28;31266;-65
2023/04/20 11:07:59;;;;;;;6.03;3.55;;;;;;;-144.85;100.00;61331.59;5078596;28;32998;-66
2023/04/20 11:10:41;;;;;;;8.05;3.55;;;;;;;-144.85;100.00;61331.59;5078586;28;31749;-66
2023/04/20 11:13:22;;;;;;;6.10;3.80;;;;;;;-144.85;100.00;61331.59;5078596;28;32377;-66
2023/04/20 11:15:49;;;;;;;6.80;3.90;;;;;;;-144.85;100.00;61331.59;5078949;28;32675;-65
2023/04/20 11:18:17;;;;;;;9.05;3.92;;;;;;;-144.85;100.00;61331.59;5064214;28;33079;-66
2023/04/20 11:20:52;;;;;;;6.55;3.75;;;;;;;-144.85;100.00;61331.59;5079822;28;31508;-66